Terminal Aerodrome Forecast
Issued by NWS

Current Version | Previous Version | Text Only | Print | Product List | Glossary Off
Versions: 1 2 3 4 5 6 7 8 9 10 11 12 13 14 15 16 17

912
FTUS41 KPBZ 262326 AAA
TAFHLG
TAF AMD
KHLG 262326Z 2623/2718 35004KT P6SM SCT250
      TEMPO 2709/2712 5SM BR=

USA.gov is the U.S. government's official web portal to all federal, state and local government web resources and services.